Time;durP1;ratioP1;P1;durP2;ratioP2;P2;SDS_P1;SDS_P2;PMS_P1;PMS_P2;Temp;Humidity;BMP_temperature;BMP_pressure;BME280_temperature;BME280_humidity;BME280_pressure;Samples;Min_cycle;Max_cycle;Signal;HPM_P1;HPM_P2
2023/12/03 00:00:08;;;;;;;38.90;17.90;;;;;;;1.93;85.01;101836.25;5059424;28;20434;-73
2023/12/03 00:02:36;;;;;;;36.05;16.33;;;;;;;1.91;85.13;101828.44;5062319;28;20025;-73
2023/12/03 00:05:02;;;;;;;38.80;17.08;;;;;;;1.96;85.10;101828.47;5060620;28;20028;-73
2023/12/03 00:07:28;;;;;;;39.30;16.83;;;;;;;1.97;85.22;101827.63;5054209;28;20108;-73
2023/12/03 00:09:55;;;;;;;39.03;16.83;;;;;;;1.98;84.97;101825.00;5057834;28;20467;-73
2023/12/03 00:12:20;;;;;;;34.33;15.07;;;;;;;2.03;84.57;101819.84;5056916;28;20757;-71
2023/12/03 00:14:45;;;;;;;33.65;15.93;;;;;;;2.07;84.71;101823.38;5060361;28;20024;-71
2023/12/03 00:17:11;;;;;;;37.38;16.70;;;;;;;2.20;84.50;101827.84;5057589;28;20024;-71
2023/12/03 00:19:36;;;;;;;35.83;16.85;;;;;;;2.02;85.43;101825.94;5056461;28;20067;-71
2023/12/03 00:22:02;;;;;;;36.38;15.82;;;;;;;2.07;85.29;101826.84;5056015;28;20042;-71
2023/12/03 00:24:27;;;;;;;31.10;12.52;;;;;;;2.19;84.91;101823.47;5059679;28;20466;-71
2023/12/03 00:26:52;;;;;;;31.48;15.18;;;;;;;2.07;85.00;101820.75;5064188;28;20064;-71
2023/12/03 00:29:18;;;;;;;34.58;16.13;;;;;;;2.01;85.63;101832.88;5062634;28;20020;-71
2023/12/03 00:31:43;;;;;;;35.42;15.63;;;;;;;2.10;85.13;101819.06;5058653;28;20040;-71
2023/12/03 00:34:08;;;;;;;37.95;16.45;;;;;;;2.09;85.72;101824.25;5058867;28;20526;-71
2023/12/03 00:36:34;;;;;;;34.17;15.82;;;;;;;2.28;84.89;101826.19;5053617;28;20028;-71
2023/12/03 00:38:59;;;;;;;34.50;14.32;;;;;;;2.31;85.02;101828.81;5062427;28;20024;-71
2023/12/03 00:41:25;;;;;;;29.65;14.05;;;;;;;2.37;84.38;101823.66;5068990;28;20074;-71
2023/12/03 00:43:50;;;;;;;36.53;15.52;;;;;;;2.36;84.60;101827.13;5061697;28;20032;-71
2023/12/03 00:46:19;;;;;;;37.97;15.25;;;;;;;2.42;84.38;101818.47;5062150;28;20112;-71
2023/12/03 00:48:46;;;;;;;40.35;15.75;;;;;;;2.33;85.16;101826.22;5064673;28;20530;-71
2023/12/03 00:51:15;;;;;;;33.20;16.15;;;;;;;2.38;85.23;101821.91;5065145;28;20027;-71
2023/12/03 00:53:43;;;;;;;39.65;16.35;;;;;;;2.33;85.22;101824.47;5066728;28;20090;-71
2023/12/03 00:56:09;;;;;;;33.25;16.30;;;;;;;2.34;85.03;101826.25;5063439;28;20048;-71
2023/12/03 00:58:34;;;;;;;36.30;16.05;;;;;;;2.38;85.30;101832.34;5058107;28;20400;-71
2023/12/03 01:01:00;;;;;;;31.70;15.13;;;;;;;2.38;85.03;101832.34;5064160;28;20029;-71
2023/12/03 01:03:25;;;;;;;30.15;14.75;;;;;;;2.29;85.53;101826.22;5060747;28;20136;-71
2023/12/03 01:05:51;;;;;;;29.45;15.15;;;;;;;2.23;85.78;101836.56;5064276;28;20028;-71
2023/12/03 01:08:16;;;;;;;31.02;15.10;;;;;;;2.31;85.59;101841.88;5061210;28;20063;-71
2023/12/03 01:10:41;;;;;;;34.65;16.08;;;;;;;2.32;85.79;101842.75;5065174;28;20043;-71
2023/12/03 01:13:07;;;;;;;31.00;14.73;;;;;;;2.42;85.09;101834.13;5065135;28;20497;-71
2023/12/03 01:15:32;;;;;;;29.85;14.23;;;;;;;2.48;84.77;101836.81;5064470;28;20020;-71
2023/12/03 01:17:58;;;;;;;32.08;15.65;;;;;;;2.50;84.57;101846.41;5063188;28;20095;-70
2023/12/03 01:20:23;;;;;;;35.53;14.98;;;;;;;2.48;84.35;101840.31;5061680;28;20477;-71
2023/12/03 01:22:48;;;;;;;34.58;16.98;;;;;;;2.43;84.76;101849.81;5060727;28;20028;-73
2023/12/03 01:25:14;;;;;;;35.08;17.17;;;;;;;2.49;84.36;101854.22;5068644;28;20024;-73
2023/12/03 01:27:39;;;;;;;31.40;16.77;;;;;;;2.44;84.59;101853.31;5060529;28;20025;-73
2023/12/03 01:30:05;;;;;;;34.83;17.83;;;;;;;2.40;84.76;101860.22;5064755;28;20025;-73
2023/12/03 01:32:30;;;;;;;37.97;20.35;;;;;;;2.41;84.46;101853.28;5057357;28;20020;-73
2023/12/03 01:34:56;;;;;;;36.20;18.33;;;;;;;2.44;84.46;101851.56;5061842;28;20040;-73
2023/12/03 01:37:21;;;;;;;37.78;17.05;;;;;;;2.41;84.43;101853.28;5057494;28;20143;-73
2023/12/03 01:39:46;;;;;;;29.75;15.02;;;;;;;2.39;84.16;101853.25;5061114;28;20108;-73
2023/12/03 01:42:12;;;;;;;35.00;17.45;;;;;;;2.30;84.04;101853.19;5061834;28;20025;-73
2023/12/03 01:44:37;;;;;;;35.15;16.63;;;;;;;2.24;83.95;101851.38;5061068;28;20032;-73
2023/12/03 01:47:04;;;;;;;31.90;17.30;;;;;;;2.17;83.97;101859.13;5060758;28;20035;-73
2023/12/03 01:49:30;;;;;;;36.42;16.95;;;;;;;2.08;84.32;101856.41;5064292;28;20024;-73
2023/12/03 01:51:56;;;;;;;34.13;16.08;;;;;;;2.04;84.01;101865.94;5063077;28;20427;-73
2023/12/03 01:54:26;;;;;;;37.70;18.17;;;;;;;1.93;84.47;101854.50;5061929;28;20021;-73
2023/12/03 01:56:52;;;;;;;32.97;16.92;;;;;;;1.83;84.96;101850.06;5059704;28;20511;-73
2023/12/03 01:59:17;;;;;;;44.90;22.02;;;;;;;1.78;84.91;101855.22;5063956;28;20025;-73
2023/12/03 02:01:43;;;;;;;33.47;16.20;;;;;;;1.83;84.54;101861.34;5064053;28;20048;-73
2023/12/03 02:04:08;;;;;;;31.95;16.27;;;;;;;1.79;84.19;101854.34;5067907;28;20115;-73
2023/12/03 02:06:33;;;;;;;33.97;16.45;;;;;;;1.79;84.20;101862.16;5068595;28;20084;-73
2023/12/03 02:08:59;;;;;;;34.95;15.80;;;;;;;1.82;84.46;101863.91;5058864;28;20032;-73
2023/12/03 02:11:24;;;;;;;37.35;17.48;;;;;;;1.82;84.72;101861.31;5057167;28;20039;-73
2023/12/03 02:13:50;;;;;;;36.72;16.98;;;;;;;1.91;84.47;101864.03;5066591;28;20037;-73
2023/12/03 02:16:16;;;;;;;37.38;17.50;;;;;;;1.96;84.40;101871.06;5056837;28;20125;-73
2023/12/03 02:18:41;;;;;;;37.13;18.75;;;;;;;1.93;85.06;101871.03;5068031;28;20028;-73
2023/12/03 02:21:07;;;;;;;42.50;22.15;;;;;;;1.92;85.25;101874.50;5062381;28;20024;-73
2023/12/03 02:23:33;;;;;;;46.40;20.13;;;;;;;1.99;84.96;101873.69;5057641;28;20388;-71
2023/12/03 02:25:58;;;;;;;39.90;18.75;;;;;;;2.08;84.57;101882.50;5061001;28;20284;-71
2023/12/03 02:28:24;;;;;;;35.67;18.67;;;;;;;2.08;84.20;101880.75;5062466;28;20034;-71
2023/12/03 02:30:50;;;;;;;43.75;20.58;;;;;;;2.12;84.06;101881.66;5061929;28;20128;-71
2023/12/03 02:33:16;;;;;;;43.22;20.77;;;;;;;2.15;83.98;101879.13;5063174;28;20033;-71
2023/12/03 02:35:41;;;;;;;35.88;19.45;;;;;;;2.19;83.75;101884.38;5065437;28;20348;-71
2023/12/03 02:38:07;;;;;;;39.38;19.63;;;;;;;2.25;83.57;101880.94;5057748;28;20116;-71
2023/12/03 02:40:33;;;;;;;42.70;20.33;;;;;;;2.22;83.73;101876.56;5061776;28;20276;-71
2023/12/03 02:42:59;;;;;;;34.65;18.55;;;;;;;2.20;83.61;101873.06;5061613;28;20031;-71
2023/12/03 02:45:25;;;;;;;37.92;18.75;;;;;;;2.20;83.67;101874.81;5056914;28;20560;-71
2023/12/03 02:47:50;;;;;;;36.83;14.90;;;;;;;2.22;83.23;101876.56;5057052;28;20020;-71
2023/12/03 02:50:15;;;;;;;40.10;20.77;;;;;;;2.18;83.61;101881.72;5055819;28;20028;-71
2023/12/03 02:52:44;;;;;;;37.65;17.52;;;;;;;2.25;83.28;101875.75;5058439;28;20040;-71
2023/12/03 02:55:09;;;;;;;34.58;16.52;;;;;;;2.26;83.39;101878.34;5058292;28;20028;-71
2023/12/03 02:57:35;;;;;;;35.40;16.02;;;;;;;2.34;82.84;101873.22;5057711;28;20047;-71
2023/12/03 03:00:02;;;;;;;39.55;18.63;;;;;;;2.30;82.92;101882.75;5055810;28;20377;-71
2023/12/03 03:02:27;;;;;;;33.58;15.52;;;;;;;2.36;82.94;101891.50;5053736;28;20476;-71
2023/12/03 03:04:52;;;;;;;36.72;18.33;;;;;;;2.31;82.96;101888.84;5052781;28;20021;-71
2023/12/03 03:07:19;;;;;;;29.08;15.18;;;;;;;2.33;82.92;101871.44;5056129;28;20032;-71
2023/12/03 03:09:44;;;;;;;38.58;17.27;;;;;;;2.33;82.89;101876.66;5057317;28;20497;-71
2023/12/03 03:12:09;;;;;;;33.03;16.80;;;;;;;2.38;82.83;101875.00;5058001;28;20157;-71
2023/12/03 03:14:34;;;;;;;39.00;17.15;;;;;;;2.31;82.83;101875.78;5056479;28;20052;-71
2023/12/03 03:17:00;;;;;;;37.15;16.52;;;;;;;2.38;82.55;101879.31;5060208;28;20102;-71
2023/12/03 03:19:25;;;;;;;32.40;16.52;;;;;;;2.40;82.48;101883.72;5053615;28;20060;-71
2023/12/03 03:21:50;;;;;;;33.15;16.55;;;;;;;2.34;82.60;101883.66;5060611;28;20118;-71
2023/12/03 03:24:16;;;;;;;35.13;16.10;;;;;;;2.36;82.29;101884.53;5063854;28;20051;-71
2023/12/03 03:26:41;;;;;;;35.42;17.13;;;;;;;2.32;82.62;101887.09;5063800;28;20074;-71
2023/12/03 03:29:06;;;;;;;38.30;18.58;;;;;;;2.25;82.47;101884.44;5062065;28;20139;-70
2023/12/03 03:31:32;;;;;;;37.67;17.33;;;;;;;2.21;82.99;101874.81;5060906;28;20058;-71
2023/12/03 03:33:57;;;;;;;38.72;17.95;;;;;;;2.19;82.66;101884.38;5064465;28;20031;-71
2023/12/03 03:36:23;;;;;;;33.85;16.00;;;;;;;2.15;82.78;101881.72;5061617;28;20426;-71
2023/12/03 03:38:49;;;;;;;33.65;17.20;;;;;;;2.07;82.89;101883.34;5066151;28;20041;-71
2023/12/03 03:41:14;;;;;;;35.78;17.73;;;;;;;1.99;83.00;101880.66;5060747;28;20073;-71
2023/12/03 03:43:39;;;;;;;35.85;16.50;;;;;;;1.96;83.03;101878.91;5059634;28;20345;-73
2023/12/03 03:46:05;;;;;;;36.17;16.70;;;;;;;1.92;82.98;101881.44;5057169;28;20077;-73
2023/12/03 03:48:30;;;;;;;42.38;18.52;;;;;;;1.79;83.73;101876.06;5059796;28;20464;-73
2023/12/03 03:50:56;;;;;;;34.10;17.77;;;;;;;1.74;83.40;101885.56;5058400;28;20023;-73
2023/12/03 03:53:21;;;;;;;28.50;14.80;;;;;;;1.75;82.95;101887.31;5053446;28;20021;-73
2023/12/03 03:55:47;;;;;;;32.25;16.55;;;;;;;1.69;83.59;101888.97;5057876;28;20045;-73
2023/12/03 03:58:13;;;;;;;33.25;17.10;;;;;;;1.69;83.46;101889.84;5060674;28;20479;-73
2023/12/03 04:00:38;;;;;;;35.67;19.35;;;;;;;1.63;84.10;101894.09;5056466;28;20111;-73
2023/12/03 04:03:04;;;;;;;43.47;16.73;;;;;;;1.67;83.41;101895.88;5052201;28;20033;-73
2023/12/03 04:05:29;;;;;;;39.15;17.48;;;;;;;1.56;83.76;101890.53;5061655;28;20028;-73
2023/12/03 04:07:54;;;;;;;33.95;17.33;;;;;;;1.57;83.61;101897.50;5056743;28;20029;-73
2023/12/03 04:10:20;;;;;;;30.20;15.70;;;;;;;1.57;83.69;101897.50;5063634;28;20024;-73
2023/12/03 04:12:47;;;;;;;30.58;15.65;;;;;;;1.55;83.57;101898.34;5058234;28;20040;-73
2023/12/03 04:15:13;;;;;;;33.72;16.27;;;;;;;1.49;83.92;101893.91;5058078;28;20077;-73
2023/12/03 04:17:38;;;;;;;39.40;17.38;;;;;;;1.51;83.52;101897.41;5058220;28;20021;-73
2023/12/03 04:20:05;;;;;;;37.65;16.83;;;;;;;1.47;84.08;101895.63;5061701;28;20028;-73
2023/12/03 04:22:30;;;;;;;37.60;17.95;;;;;;;1.45;83.73;101893.00;5055860;28;20025;-73
2023/12/03 04:24:55;;;;;;;32.63;16.05;;;;;;;1.41;83.59;101901.63;5053719;28;20025;-73
2023/12/03 04:27:21;;;;;;;33.65;17.35;;;;;;;1.28;84.09;101897.09;5056604;28;20400;-73
2023/12/03 04:29:46;;;;;;;32.70;15.80;;;;;;;1.30;83.70;101904.91;5057559;28;20020;-73
2023/12/03 04:32:11;;;;;;;35.67;15.88;;;;;;;1.21;83.92;101905.66;5055374;28;20030;-73
2023/12/03 04:34:40;;;;;;;40.20;16.60;;;;;;;1.18;84.35;101903.00;5056661;28;20113;-73
2023/12/03 04:37:06;;;;;;;34.65;15.65;;;;;;;1.14;84.48;101899.47;5055681;28;20503;-73
2023/12/03 04:39:31;;;;;;;37.75;16.27;;;;;;;1.14;84.25;101901.22;5054952;28;20025;-73
2023/12/03 04:41:56;;;;;;;37.95;19.02;;;;;;;1.04;84.87;101907.13;5057200;28;20033;-72
2023/12/03 04:44:22;;;;;;;36.45;17.25;;;;;;;1.07;84.74;101904.56;5054083;28;20373;-71
2023/12/03 04:46:48;;;;;;;25.98;12.93;;;;;;;1.11;84.69;101909.84;5061013;28;20468;-71
2023/12/03 04:49:13;;;;;;;40.30;18.15;;;;;;;1.05;84.61;101911.47;5054702;28;20035;-71
2023/12/03 04:51:39;;;;;;;36.47;17.77;;;;;;;1.06;84.26;101915.84;5052047;28;21324;-73
2023/12/03 04:54:04;;;;;;;34.63;17.08;;;;;;;1.02;84.40;101913.16;5058362;28;20693;-73
2023/12/03 04:56:30;;;;;;;34.30;15.80;;;;;;;1.04;84.12;101915.81;5054478;28;20033;-73
2023/12/03 04:58:55;;;;;;;35.70;16.60;;;;;;;0.97;84.19;101914.81;5055465;28;20055;-73
2023/12/03 05:01:21;;;;;;;37.70;15.98;;;;;;;0.98;84.27;101918.34;5053917;28;20110;-72
2023/12/03 05:03:46;;;;;;;41.28;17.33;;;;;;;0.90;84.66;101922.53;5059149;28;20468;-73
2023/12/03 05:06:12;;;;;;;39.63;17.98;;;;;;;1.02;83.98;101917.50;5058476;28;20024;-73
2023/12/03 05:08:37;;;;;;;43.70;19.85;;;;;;;0.93;84.01;101913.06;5062631;28;20387;-72
2023/12/03 05:11:06;;;;;;;43.08;18.50;;;;;;;0.98;83.78;101914.00;5057511;28;20396;-73
2023/12/03 05:13:33;;;;;;;41.92;17.95;;;;;;;0.95;83.71;101920.88;5055529;28;20043;-72
2023/12/03 05:16:01;;;;;;;45.05;18.63;;;;;;;0.94;83.56;101924.34;5060052;28;20029;-73
2023/12/03 05:18:26;;;;;;;41.50;18.48;;;;;;;0.88;83.92;101927.69;5060092;28;20043;-72
2023/12/03 05:20:51;;;;;;;40.38;18.45;;;;;;;0.90;83.64;101928.59;5055422;28;20049;-72
2023/12/03 05:23:17;;;;;;;47.22;20.67;;;;;;;0.80;84.06;101931.03;5064077;28;20444;-73
2023/12/03 05:25:42;;;;;;;50.90;23.50;;;;;;;0.77;84.06;101937.06;5061404;28;20191;-73
2023/12/03 05:28:08;;;;;;;44.17;19.25;;;;;;;0.77;84.11;101934.44;5060175;28;20100;-73
2023/12/03 05:30:33;;;;;;;41.53;19.55;;;;;;;0.76;83.80;101935.31;5064333;28;20031;-72
2023/12/03 05:32:58;;;;;;;36.20;17.63;;;;;;;0.77;83.84;101926.63;5060844;28;20020;-73
2023/12/03 05:35:24;;;;;;;44.00;18.85;;;;;;;0.75;83.77;101929.22;5065093;28;20051;-73
2023/12/03 05:37:49;;;;;;;38.67;18.17;;;;;;;0.75;83.48;101930.94;5061576;28;20028;-73
2023/12/03 05:40:15;;;;;;;44.55;19.73;;;;;;;0.65;83.76;101929.91;5060618;28;20029;-73
2023/12/03 05:42:41;;;;;;;41.83;17.15;;;;;;;0.71;83.32;101926.53;5056875;28;20090;-73
2023/12/03 05:45:07;;;;;;;47.65;19.73;;;;;;;0.66;83.41;101930.78;5061031;28;20107;-73
2023/12/03 05:47:33;;;;;;;39.83;17.40;;;;;;;0.64;83.15;101929.88;5059828;28;20448;-73
2023/12/03 05:50:00;;;;;;;45.13;17.30;;;;;;;0.62;83.42;101931.56;5054843;28;20025;-73
2023/12/03 05:52:26;;;;;;;42.50;18.95;;;;;;;0.61;83.57;101933.31;5065319;28;20098;-72
2023/12/03 05:54:51;;;;;;;47.85;19.23;;;;;;;0.62;83.35;101936.78;5058730;28;20559;-73
2023/12/03 05:57:16;;;;;;;41.00;16.63;;;;;;;0.67;82.70;101932.53;5060877;28;20364;-73
2023/12/03 05:59:42;;;;;;;38.92;17.20;;;;;;;0.63;83.13;101935.94;5056129;28;20032;-73
2023/12/03 06:02:07;;;;;;;39.92;16.45;;;;;;;0.65;82.81;101939.41;5056105;28;20082;-73
2023/12/03 06:04:32;;;;;;;36.80;16.00;;;;;;;0.66;82.80;101936.88;5059808;28;20078;-73
2023/12/03 06:06:58;;;;;;;40.25;18.15;;;;;;;0.62;82.93;101942.00;5062545;28;20020;-73
2023/12/03 06:09:23;;;;;;;44.42;17.95;;;;;;;0.62;82.60;101942.00;5059328;28;20216;-72
2023/12/03 06:11:49;;;;;;;41.05;17.45;;;;;;;0.62;82.31;101947.19;5052989;28;20400;-73
2023/12/03 06:14:14;;;;;;;43.40;17.80;;;;;;;0.61;82.39;101948.91;5057568;28;20143;-73
2023/12/03 06:16:39;;;;;;;41.08;16.80;;;;;;;0.57;82.48;101951.44;5064203;28;20099;-72
2023/12/03 06:19:05;;;;;;;42.47;17.35;;;;;;;0.55;82.63;101954.00;5066987;28;20060;-72
2023/12/03 06:21:30;;;;;;;34.85;16.10;;;;;;;0.36;83.21;101946.69;5060079;28;20029;-73
2023/12/03 06:23:56;;;;;;;37.85;16.27;;;;;;;0.36;83.23;101954.50;5061261;28;20045;-73
2023/12/03 06:26:21;;;;;;;46.05;17.35;;;;;;;0.36;83.19;101965.75;5060554;28;20017;-73
2023/12/03 06:28:46;;;;;;;39.40;16.52;;;;;;;0.44;82.68;101956.41;5063343;28;20047;-73
2023/12/03 06:31:12;;;;;;;43.22;16.60;;;;;;;0.43;82.84;101975.47;5055457;28;20031;-73
2023/12/03 06:33:38;;;;;;;35.83;14.20;;;;;;;0.43;82.69;101967.66;5060005;28;20109;-73
2023/12/03 06:36:03;;;;;;;37.72;15.88;;;;;;;0.45;83.06;101968.53;5061643;28;20096;-73
2023/12/03 06:38:29;;;;;;;44.53;18.02;;;;;;;0.50;82.74;101972.13;5060473;28;20024;-73
2023/12/03 06:40:54;;;;;;;36.97;17.27;;;;;;;0.57;82.44;101969.66;5055858;28;20082;-73
2023/12/03 06:43:20;;;;;;;46.97;21.73;;;;;;;0.51;82.72;101957.38;5062643;28;20505;-73
2023/12/03 06:45:45;;;;;;;39.17;16.85;;;;;;;0.65;82.04;101952.44;5052445;28;20029;-73
2023/12/03 06:48:10;;;;;;;43.10;15.90;;;;;;;0.54;82.57;101943.56;5063985;28;20028;-73
2023/12/03 06:50:36;;;;;;;35.85;14.88;;;;;;;0.45;82.92;101944.25;5058371;28;20025;-73
2023/12/03 06:53:01;;;;;;;38.30;17.80;;;;;;;0.35;82.92;101947.53;5058130;28;20077;-73
2023/12/03 06:55:27;;;;;;;39.33;16.38;;;;;;;0.46;82.79;101944.28;5061734;28;20079;-73
2023/12/03 06:57:52;;;;;;;47.92;20.60;;;;;;;0.31;83.17;101945.72;5059549;28;20035;-73
2023/12/03 07:00:18;;;;;;;36.90;16.67;;;;;;;0.36;82.87;101952.75;5053155;28;20033;-73
2023/12/03 07:02:44;;;;;;;36.65;15.52;;;;;;;0.41;82.62;101945.03;5059613;28;20024;-73
2023/12/03 07:05:09;;;;;;;39.63;17.25;;;;;;;0.33;82.74;101944.91;5058650;28;20404;-73
2023/12/03 07:07:35;;;;;;;37.90;15.57;;;;;;;0.35;82.49;101947.53;5073858;28;20028;-73
2023/12/03 07:10:00;;;;;;;38.92;16.60;;;;;;;0.34;82.54;101956.19;5056991;28;20503;-73
2023/12/03 07:12:25;;;;;;;39.38;15.00;;;;;;;0.34;82.48;101946.66;5062161;28;20028;-71
2023/12/03 07:14:51;;;;;;;41.50;16.52;;;;;;;0.31;82.47;101951.78;5060417;28;20553;-71
2023/12/03 07:17:16;;;;;;;34.65;14.82;;;;;;;0.36;82.27;101951.88;5059756;28;20356;-71
2023/12/03 07:19:45;;;;;;;39.25;17.10;;;;;;;0.23;82.79;101958.56;5058810;28;20433;-70
2023/12/03 07:22:11;;;;;;;36.25;14.93;;;;;;;0.32;82.34;101958.75;5058288;28;20039;-71
2023/12/03 07:24:40;;;;;;;35.78;15.57;;;;;;;0.31;82.15;101959.59;5065247;28;20028;-71
2023/12/03 07:27:06;;;;;;;37.65;16.30;;;;;;;0.22;82.32;101957.69;5054088;28;20032;-71
2023/12/03 07:29:32;;;;;;;36.38;16.17;;;;;;;0.28;82.29;101962.16;5058794;28;20032;-71
2023/12/03 07:31:58;;;;;;;38.08;15.13;;;;;;;0.32;82.33;101963.06;5061776;28;20033;-70
2023/12/03 07:34:23;;;;;;;37.40;16.42;;;;;;;0.31;82.42;101967.41;5058214;28;20715;-70
2023/12/03 07:36:49;;;;;;;35.55;13.43;;;;;;;0.24;82.37;101960.34;5060691;28;20055;-71
2023/12/03 07:39:14;;;;;;;41.53;15.45;;;;;;;0.29;82.28;101968.25;5061388;28;20107;-71
2023/12/03 07:41:39;;;;;;;36.08;14.73;;;;;;;0.46;81.76;101972.91;5054916;28;20028;-70
2023/12/03 07:44:05;;;;;;;36.08;15.13;;;;;;;0.45;81.74;101981.56;5055721;28;20110;-71
2023/12/03 07:46:32;;;;;;;36.60;16.73;;;;;;;0.45;81.57;101976.34;5062046;28;20036;-71
2023/12/03 07:48:58;;;;;;;24.90;11.63;;;;;;;0.55;81.35;101968.72;5061648;28;20554;-71
2023/12/03 07:51:23;;;;;;;35.78;15.55;;;;;;;0.55;81.15;101973.94;5058808;28;20049;-71
2023/12/03 07:53:49;;;;;;;37.45;17.23;;;;;;;0.53;81.12;101978.25;5058777;28;20032;-71
2023/12/03 07:56:14;;;;;;;39.08;15.25;;;;;;;0.62;81.02;101973.22;5053869;28;20049;-71
2023/12/03 07:58:39;;;;;;;37.47;15.80;;;;;;;0.55;81.01;101976.53;5059106;28;20082;-71
2023/12/03 08:01:05;;;;;;;38.53;17.70;;;;;;;0.59;80.66;101971.41;5049362;28;20029;-71
2023/12/03 08:03:31;;;;;;;40.47;16.67;;;;;;;0.71;80.49;101976.00;5053007;28;20029;-71
2023/12/03 08:05:57;;;;;;;32.47;14.63;;;;;;;0.74;80.17;101976.91;5055314;28;20032;-71
2023/12/03 08:08:22;;;;;;;36.45;16.48;;;;;;;0.73;80.01;101974.28;5055950;28;20151;-71
2023/12/03 08:10:48;;;;;;;38.40;15.18;;;;;;;0.79;79.87;101984.78;5060344;28;20020;-72
2023/12/03 08:13:13;;;;;;;32.47;15.50;;;;;;;0.79;79.35;101983.91;5055788;28;20052;-73
2023/12/03 08:15:38;;;;;;;34.42;15.30;;;;;;;0.79;79.48;101983.91;5059219;28;20079;-73
2023/12/03 08:18:04;;;;;;;36.72;14.45;;;;;;;0.80;79.73;101989.16;5058283;28;20150;-73
2023/12/03 08:20:30;;;;;;;34.03;15.55;;;;;;;0.77;79.31;101983.91;5061508;28;20109;-73
2023/12/03 08:22:55;;;;;;;34.78;15.00;;;;;;;0.78;78.89;101990.84;5060709;28;20029;-71
2023/12/03 08:25:21;;;;;;;37.05;14.48;;;;;;;0.90;78.70;101993.69;5059622;28;20031;-71
2023/12/03 08:27:46;;;;;;;30.45;15.00;;;;;;;1.06;78.34;102001.75;5054799;28;20017;-70
2023/12/03 08:30:12;;;;;;;37.83;16.58;;;;;;;1.20;77.89;102000.28;5061199;28;20044;-71
2023/12/03 08:32:37;;;;;;;34.05;15.50;;;;;;;1.58;77.63;101997.41;5057702;28;20044;-71
2023/12/03 08:35:03;;;;;;;29.88;12.65;;;;;;;1.72;76.49;102003.69;5062599;28;20020;-72
2023/12/03 08:37:28;;;;;;;31.05;14.23;;;;;;;2.15;75.66;102006.94;5059586;28;20035;-71
2023/12/03 08:39:54;;;;;;;30.75;13.93;;;;;;;2.13;74.66;101998.19;5064739;28;20056;-71
2023/12/03 08:42:19;;;;;;;31.50;14.70;;;;;;;2.15;74.70;102005.19;5060080;28;20035;-71
2023/12/03 08:44:45;;;;;;;32.50;14.20;;;;;;;2.21;74.08;102002.66;5058774;28;20035;-71
2023/12/03 08:47:11;;;;;;;31.05;13.57;;;;;;;2.23;73.32;102013.09;5052316;28;20468;-70
2023/12/03 08:49:36;;;;;;;26.17;12.52;;;;;;;2.34;73.21;102016.75;5054108;28;20059;-71
2023/12/03 08:52:02;;;;;;;26.33;12.43;;;;;;;2.60;72.05;102014.44;5048402;28;20025;-70
2023/12/03 08:54:27;;;;;;;30.52;13.95;;;;;;;2.58;71.89;102021.38;5057455;28;20039;-70
2023/12/03 08:56:52;;;;;;;27.05;12.63;;;;;;;2.69;72.12;102014.53;5053990;28;20036;-70
2023/12/03 08:59:19;;;;;;;31.58;13.70;;;;;;;2.66;71.82;102014.53;5059599;28;20124;-70
2023/12/03 09:01:45;;;;;;;28.85;13.13;;;;;;;2.41;71.42;102018.56;5060919;28;20103;-71
2023/12/03 09:04:12;;;;;;;25.65;12.32;;;;;;;2.39;71.48;102024.63;5061163;28;20555;-70
2023/12/03 09:06:38;;;;;;;27.15;12.55;;;;;;;2.55;72.07;102013.50;5061153;28;20033;-71
2023/12/03 09:09:04;;;;;;;29.38;14.15;;;;;;;2.69;70.97;102016.28;5056859;28;20502;-70
2023/12/03 09:11:29;;;;;;;27.25;14.73;;;;;;;2.78;69.06;102025.06;5055388;28;20032;-71
2023/12/03 09:13:54;;;;;;;29.98;13.68;;;;;;;2.77;69.33;102023.34;5065149;28;20051;-70
2023/12/03 09:16:20;;;;;;;27.35;13.25;;;;;;;3.05;69.92;102021.00;5057790;28;20082;-71
2023/12/03 09:18:46;;;;;;;26.05;11.73;;;;;;;3.40;67.93;102018.69;5062747;28;20210;-70
2023/12/03 09:21:12;;;;;;;25.60;11.23;;;;;;;3.44;67.35;102024.84;5059388;28;20052;-71
2023/12/03 09:23:38;;;;;;;23.65;10.77;;;;;;;3.70;66.42;102018.06;5059818;28;20055;-73
2023/12/03 09:26:03;;;;;;;21.45;10.75;;;;;;;3.64;64.71;102014.50;5061457;28;20016;-73
2023/12/03 09:28:30;;;;;;;26.67;12.13;;;;;;;3.55;66.34;102018.84;5060885;28;20508;-73
2023/12/03 09:30:57;;;;;;;27.00;13.27;;;;;;;3.23;65.92;102030.75;5064062;28;20024;-73
2023/12/03 09:33:27;;;;;;;25.98;11.35;;;;;;;3.43;66.75;102033.53;5065168;28;20379;-70
2023/12/03 09:35:56;;;;;;;21.45;11.38;;;;;;;3.41;66.61;102027.44;5062933;28;20429;-71
2023/12/03 09:38:22;;;;;;;24.92;12.05;;;;;;;3.53;66.22;102017.94;5062625;28;20126;-71
2023/12/03 09:40:48;;;;;;;27.25;13.68;;;;;;;3.32;66.16;102015.16;5060875;28;20107;-70
2023/12/03 09:43:18;;;;;;;26.88;12.23;;;;;;;3.19;66.09;102014.16;5057945;28;20111;-71
2023/12/03 09:45:45;;;;;;;25.30;12.45;;;;;;;3.16;66.07;102018.47;5058302;28;20017;-71
2023/12/03 09:48:13;;;;;;;22.25;10.98;;;;;;;2.99;67.28;102016.59;5051024;28;20078;-70
2023/12/03 09:50:42;;;;;;;25.08;12.98;;;;;;;3.18;67.39;102017.66;5063357;28;20392;-71
2023/12/03 09:53:10;;;;;;;26.33;13.05;;;;;;;3.28;66.46;102016.00;5062486;28;20024;-70
2023/12/03 09:55:38;;;;;;;23.65;10.90;;;;;;;3.45;66.99;102021.34;5055362;28;20537;-71
2023/12/03 09:58:03;;;;;;;25.70;12.65;;;;;;;3.52;66.41;102018.81;5062736;28;20030;-71
2023/12/03 10:00:31;;;;;;;24.65;11.15;;;;;;;3.57;65.54;102018.84;5058657;28;20033;-71
2023/12/03 10:02:57;;;;;;;22.67;11.50;;;;;;;3.72;67.46;102012.84;5057353;28;20492;-71
2023/12/03 10:05:22;;;;;;;24.58;11.68;;;;;;;3.36;65.37;102006.50;5061123;28;20033;-71
2023/12/03 10:07:50;;;;;;;23.83;9.88;;;;;;;3.43;66.44;102010.88;5062869;28;20071;-71
2023/12/03 10:10:20;;;;;;;25.35;11.52;;;;;;;3.24;66.88;102011.59;5069115;28;20456;-71
2023/12/03 10:12:48;;;;;;;27.05;12.43;;;;;;;3.00;66.77;102007.91;5062443;28;20043;-71
2023/12/03 10:15:13;;;;;;;22.45;10.80;;;;;;;3.10;68.10;102002.75;5062132;28;20788;-71
2023/12/03 10:17:40;;;;;;;24.60;11.25;;;;;;;3.15;67.88;101998.44;5060552;28;20021;-71
2023/12/03 10:20:17;;;;;;;21.90;9.68;;;;;;;3.03;67.70;102009.66;5057483;28;20039;-70
2023/12/03 10:22:43;;;;;;;22.05;10.75;;;;;;;3.02;67.78;102006.16;5059991;28;20043;-71
2023/12/03 10:25:09;;;;;;;23.58;11.32;;;;;;;2.99;67.32;101998.31;5062806;28;20024;-70
2023/12/03 10:27:35;;;;;;;23.95;10.63;;;;;;;2.96;66.75;101994.78;5067588;28;20459;-71
2023/12/03 10:30:01;;;;;;;22.05;10.13;;;;;;;2.90;67.50;101992.13;5058682;28;20081;-71
2023/12/03 10:32:27;;;;;;;25.27;11.07;;;;;;;2.84;68.34;101989.44;5062207;28;20028;-71
2023/12/03 10:34:54;;;;;;;22.60;11.75;;;;;;;2.76;67.35;101992.88;5064051;28;20036;-71
2023/12/03 10:37:19;;;;;;;22.90;9.93;;;;;;;2.85;68.01;101976.41;5060813;28;20032;-71
2023/12/03 10:39:44;;;;;;;22.50;10.02;;;;;;;2.80;67.55;101976.38;5057536;28;20029;-70
2023/12/03 10:42:10;;;;;;;21.73;9.70;;;;;;;2.74;66.54;101978.91;5067265;28;20039;-73
2023/12/03 10:44:38;;;;;;;25.45;11.85;;;;;;;2.79;66.93;101977.22;5055823;28;20095;-73
2023/12/03 10:47:03;;;;;;;23.15;11.38;;;;;;;2.90;67.32;101973.84;5059932;28;20033;-73
2023/12/03 10:49:31;;;;;;;19.05;9.57;;;;;;;2.78;65.99;101970.25;5064385;28;20028;-73
2023/12/03 10:51:57;;;;;;;19.98;10.25;;;;;;;2.94;66.86;101963.44;5065350;28;20061;-74
2023/12/03 10:54:23;;;;;;;19.83;9.52;;;;;;;3.01;66.56;101962.63;5066432;28;20056;-73
2023/12/03 10:56:54;;;;;;;23.05;10.00;;;;;;;3.07;66.26;101960.06;5067145;28;20083;-73
2023/12/03 10:59:23;;;;;;;23.73;10.95;;;;;;;3.22;66.40;101961.94;5061519;28;20484;-73
2023/12/03 11:01:54;;;;;;;21.80;9.50;;;;;;;3.45;66.64;101959.50;5067353;28;20111;-73
2023/12/03 11:04:23;;;;;;;26.77;11.85;;;;;;;3.48;65.20;101954.28;5058483;28;20055;-73
2023/12/03 11:06:50;;;;;;;20.83;11.27;;;;;;;3.35;62.87;101948.94;5062570;28;20063;-73
2023/12/03 11:09:15;;;;;;;21.25;10.07;;;;;;;3.78;63.64;101951.00;5065563;28;20028;-73